Time;durP1;ratioP1;P1;durP2;ratioP2;P2;SDS_P1;SDS_P2;PMS_P1;PMS_P2;Temp;Humidity;BMP_temperature;BMP_pressure;BME280_temperature;BME280_humidity;BME280_pressure;Samples;Min_cycle;Max_cycle;Signal;HPM_P1;HPM_P2
2021/10/21 00:00:31;;;;;;;;;2.00;0.33;;;;;17.72;51.90;99096.41;2091378;28;47311;-51
2021/10/21 00:01:31;;;;;;;;;1.67;0.00;;;;;17.71;52.22;99092.03;2082351;28;46916;-49
2021/10/21 00:02:32;;;;;;;;;0.33;0.00;;;;;17.71;52.05;99073.25;2082820;28;48174;-49
2021/10/21 00:03:35;;;;;;;;;0.00;0.00;;;;;17.70;52.00;99099.22;2085131;28;48340;-49
2021/10/21 00:04:35;;;;;;;;;0.00;0.00;;;;;17.70;51.91;99061.66;2083161;28;47639;-49
2021/10/21 00:05:35;;;;;;;;;0.00;0.00;;;;;17.69;52.05;99080.56;2082897;28;47145;-47
2021/10/21 00:06:36;;;;;;;;;0.00;0.00;;;;;17.68;51.94;99093.09;2083212;28;46499;-49
2021/10/21 00:07:36;;;;;;;;;0.33;0.33;;;;;17.67;52.36;99077.97;2082741;28;47744;-48
2021/10/21 00:08:37;;;;;;;;;2.33;1.00;;;;;17.67;51.72;99095.88;2090623;28;47288;-52
2021/10/21 00:09:37;;;;;;;;;0.67;0.67;;;;;17.67;51.68;99098.56;2085319;28;45932;-51
2021/10/21 00:10:39;;;;;;;;;2.00;0.00;;;;;17.66;51.87;99073.56;2083202;28;47170;-49
2021/10/21 00:11:40;;;;;;;;;1.00;1.00;;;;;17.65;51.98;99067.31;2083548;28;48221;-50
2021/10/21 00:12:40;;;;;;;;;1.33;0.67;;;;;17.65;51.78;99074.53;2088163;28;48539;-49
2021/10/21 00:13:41;;;;;;;;;1.00;0.00;;;;;17.65;52.03;99066.47;2079569;28;48083;-51
2021/10/21 00:14:41;;;;;;;;;1.00;1.00;;;;;17.65;52.15;99085.25;2074450;28;47862;-49
2021/10/21 00:15:42;;;;;;;;;1.00;0.00;;;;;17.65;51.82;99063.78;2088946;28;48160;-47
2021/10/21 00:16:42;;;;;;;;;0.00;0.00;;;;;17.66;51.78;99081.63;2091534;28;47331;-49
2021/10/21 00:17:43;;;;;;;;;1.33;0.67;;;;;17.66;51.79;99060.16;2087868;28;47303;-49
2021/10/21 00:18:44;;;;;;;;;0.00;0.00;;;;;17.65;51.72;99074.53;2083168;28;47104;-49
2021/10/21 00:19:45;;;;;;;;;0.00;0.00;;;;;17.66;51.81;99073.56;2083000;28;47261;-46
2021/10/21 00:20:45;;;;;;;;;2.00;2.00;;;;;17.67;51.75;99061.88;2083028;28;48287;-50
2021/10/21 00:21:48;;;;;;;;;0.00;0.00;;;;;17.66;51.58;99073.56;2082990;28;47130;-49
2021/10/21 00:22:49;;;;;;;;;0.00;0.00;;;;;17.66;51.72;99062.84;2090405;28;47418;-50
2021/10/21 00:23:49;;;;;;;;;0.00;0.00;;;;;17.66;51.56;99081.63;2084451;28;47361;-49
2021/10/21 00:24:50;;;;;;;;;1.33;0.33;;;;;17.67;51.57;99077.97;2082986;28;47837;-49
2021/10/21 00:25:50;;;;;;;;;0.00;0.00;;;;;17.67;51.56;99091.38;2074189;28;47722;-53
2021/10/21 00:26:50;;;;;;;;;1.00;0.00;;;;;17.68;51.53;99094.91;2074201;28;46764;-47
2021/10/21 00:27:51;;;;;;;;;1.00;0.67;;;;;17.68;51.58;99092.22;2083018;28;47198;-49
2021/10/21 00:28:51;;;;;;;;;2.00;0.00;;;;;17.68;51.70;99073.47;2082995;28;47243;-50
2021/10/21 00:29:52;;;;;;;;;0.33;0.00;;;;;17.68;51.60;99066.25;2083005;28;47436;-50
2021/10/21 00:30:52;;;;;;;;;1.00;1.00;;;;;17.66;51.39;99092.34;2083193;28;45322;-52
2021/10/21 00:31:53;;;;;;;;;2.00;0.00;;;;;17.66;51.51;99103.09;2082819;28;47983;-51
2021/10/21 00:32:53;;;;;;;;;0.00;0.00;;;;;17.67;51.36;99085.16;2083037;28;47201;-48
2021/10/21 00:33:54;;;;;;;;;0.00;0.00;;;;;17.66;51.72;99100.41;2083014;28;48311;-51
2021/10/21 00:35:02;;;;;;;;;0.00;0.00;;;;;17.65;51.27;99112.06;2083036;28;47309;-46
2021/10/21 00:36:02;;;;;;;;;0.00;0.00;;;;;17.62;51.16;99117.69;2093409;28;46964;-51
2021/10/21 00:37:03;;;;;;;;;0.67;0.67;;;;;17.63;51.37;99119.38;2083237;28;47174;-49
2021/10/21 00:38:03;;;;;;;;;0.33;0.00;;;;;17.61;51.43;99138.28;2079381;28;48293;-49
2021/10/21 00:39:04;;;;;;;;;1.33;1.00;;;;;17.60;51.46;99088.28;2082052;28;47181;-50
2021/10/21 00:40:05;;;;;;;;;0.00;0.00;;;;;17.60;51.46;99111.59;2086973;28;48260;-47
2021/10/21 00:41:06;;;;;;;;;2.00;0.00;;;;;17.60;51.53;99108.91;2083355;28;47777;-49
2021/10/21 00:42:06;;;;;;;;;1.00;1.00;;;;;17.59;51.74;99134.88;2084044;28;48006;-49
2021/10/21 00:43:07;;;;;;;;;4.00;1.00;;;;;17.59;51.22;99120.59;2075137;28;45404;-50
2021/10/21 00:44:11;;;;;;;;;0.00;0.00;;;;;17.59;51.53;99104.50;2075718;28;47119;-48
2021/10/21 00:45:11;;;;;;;;;1.00;0.75;;;;;17.59;51.58;99128.66;2082340;28;47457;-49
2021/10/21 00:46:12;;;;;;;;;0.00;0.00;;;;;17.57;51.33;99088.53;2089212;28;47534;-49
2021/10/21 00:47:13;;;;;;;;;1.50;0.75;;;;;17.59;51.43;99116.09;2090552;28;47295;-50
2021/10/21 00:48:13;;;;;;;;;0.00;0.00;;;;;17.58;51.57;99074.16;2075763;28;47073;-51
2021/10/21 00:49:14;;;;;;;;;0.00;0.00;;;;;17.59;51.32;99094.63;2072173;28;47648;-46
2021/10/21 00:50:14;;;;;;;;;0.00;0.00;;;;;17.58;51.23;99111.72;2083959;28;48004;-52
2021/10/21 00:51:15;;;;;;;;;0.00;0.00;;;;;17.58;51.57;99100.97;2075060;28;47608;-48
2021/10/21 00:52:16;;;;;;;;;0.00;0.00;;;;;17.58;51.65;99127.81;2075448;28;47272;-49
2021/10/21 00:53:17;;;;;;;;;0.75;0.00;;;;;17.58;51.15;99100.13;2075094;28;48732;-47
2021/10/21 00:54:20;;;;;;;;;1.50;0.00;;;;;17.58;51.48;99130.47;2082485;28;46760;-50
2021/10/21 00:55:21;;;;;;;;;1.25;0.75;;;;;17.58;51.41;99124.25;2089139;28;47127;-49
2021/10/21 00:56:22;;;;;;;;;0.00;0.00;;;;;17.57;51.32;99112.69;2084445;28;48360;-49
2021/10/21 00:57:24;;;;;;;;;1.25;0.00;;;;;17.56;51.07;99118.16;2072578;28;47836;-49
2021/10/21 00:58:24;;;;;;;;;0.00;0.00;;;;;17.54;51.06;99096.81;2075766;28;47512;-50
2021/10/21 00:59:28;;;;;;;;;0.00;0.00;;;;;17.52;51.27;99106.78;2092594;28;46129;-50
2021/10/21 01:00:31;;;;;;;;;0.00;0.00;;;;;17.51;51.36;99102.41;2079068;28;47580;-51
2021/10/21 01:01:33;;;;;;;;;0.25;0.00;;;;;17.50;51.32;99127.50;2075620;28;48336;-48
2021/10/21 01:02:34;;;;;;;;;0.00;0.00;;;;;17.48;51.43;99161.66;2092836;28;47487;-48
2021/10/21 01:03:35;;;;;;;;;0.00;0.00;;;;;17.47;51.09;99127.75;2088623;28;47821;-49
2021/10/21 01:04:35;;;;;;;;;0.00;0.00;;;;;17.46;51.18;99099.22;2084266;28;48244;-56
2021/10/21 01:05:36;;;;;;;;;0.00;0.00;;;;;17.46;51.04;99133.22;2084036;28;47138;-47
2021/10/21 01:06:39;;;;;;;;;0.00;0.00;;;;;17.45;51.41;99118.13;2084257;28;47259;-50
2021/10/21 01:07:40;;;;;;;;;0.00;0.00;;;;;17.44;51.26;99140.53;2084090;28;45429;-50
2021/10/21 01:08:41;;;;;;;;;0.00;0.00;;;;;17.42;51.17;99100.44;2084135;28;46965;-49
2021/10/21 01:09:43;;;;;;;;;0.00;0.00;;;;;17.42;51.30;99129.09;2076091;28;48021;-49
2021/10/21 01:10:44;;;;;;;;;0.00;0.00;;;;;17.40;51.15;99134.53;2083519;28;48218;-52
2021/10/21 01:11:44;;;;;;;;;0.00;0.00;;;;;17.38;50.92;99133.78;2084180;28;46352;-51
2021/10/21 01:12:45;;;;;;;;;0.00;0.00;;;;;17.36;51.47;99151.84;2075434;28;46592;-51
2021/10/21 01:13:46;;;;;;;;;0.00;0.00;;;;;17.35;51.25;99171.56;2083471;28;48086;-51
2021/10/21 01:14:46;;;;;;;;;0.00;0.00;;;;;17.34;51.23;99161.81;2089459;28;47277;-51
2021/10/21 01:15:47;;;;;;;;;0.00;0.00;;;;;17.32;51.01;99126.22;2084120;28;47149;-52
2021/10/21 01:16:47;;;;;;;;;0.00;0.00;;;;;17.31;50.85;99184.34;2084145;28;47173;-52
2021/10/21 01:17:49;;;;;;;;;0.00;0.00;;;;;17.30;51.30;99174.59;2077379;28;48321;-53
2021/10/21 01:18:50;;;;;;;;;0.00;0.00;;;;;17.29;50.87;99164.00;2067391;28;47394;-51
2021/10/21 01:19:50;;;;;;;;;0.00;0.00;;;;;17.27;51.29;99158.72;2080389;28;47238;-51
2021/10/21 01:20:51;;;;;;;;;0.00;0.00;;;;;17.28;50.80;99164.97;2083462;28;48854;-49
2021/10/21 01:21:53;;;;;;;;;0.00;0.00;;;;;17.27;51.27;99179.31;2083561;28;47386;-49
2021/10/21 01:22:54;;;;;;;;;0.00;0.00;;;;;17.27;51.34;99163.22;2083283;28;47986;-52
2021/10/21 01:23:55;;;;;;;;;0.00;0.00;;;;;17.27;51.22;99169.44;2075202;28;47190;-52
2021/10/21 01:24:56;;;;;;;;;0.00;0.00;;;;;17.26;50.97;99129.34;2083343;28;48739;-50
2021/10/21 01:25:56;;;;;;;;;0.00;0.00;;;;;17.26;51.25;99174.91;2092100;28;47191;-51
2021/10/21 01:26:57;;;;;;;;;0.00;0.00;;;;;17.25;50.83;99168.72;2092290;28;46236;-47
2021/10/21 01:27:57;;;;;;;;;0.00;0.00;;;;;17.24;50.86;99193.81;2092323;28;47314;-50
2021/10/21 01:28:58;;;;;;;;;0.00;0.00;;;;;17.23;51.02;99167.97;2092264;28;47852;-51
2021/10/21 01:29:58;;;;;;;;;0.00;0.00;;;;;17.22;51.14;99198.44;2092391;28;45379;-51
2021/10/21 01:30:59;;;;;;;;;0.00;0.00;;;;;17.22;51.04;99185.03;2092226;28;45551;-47
2021/10/21 01:31:59;;;;;;;;;0.00;0.00;;;;;17.22;50.81;99210.97;2092222;28;48077;-47
2021/10/21 01:33:00;;;;;;;;;0.33;0.00;;;;;17.22;50.96;99202.94;2092222;28;47975;-47
2021/10/21 01:34:01;;;;;;;;;0.00;0.00;;;;;17.21;50.74;99207.44;2083308;28;45517;-48
2021/10/21 01:35:03;;;;;;;;;0.00;0.00;;;;;17.21;50.69;99195.88;2083494;28;47224;-48
2021/10/21 01:36:04;;;;;;;;;0.00;0.00;;;;;17.19;50.75;99214.75;2092228;28;47452;-48
2021/10/21 01:37:04;;;;;;;;;0.00;0.00;;;;;17.19;50.67;99229.97;2091643;28;47719;-49
2021/10/21 01:38:05;;;;;;;;;0.00;0.00;;;;;17.18;50.61;99225.59;2084509;28;47346;-47
2021/10/21 01:39:09;;;;;;;;;0.00;0.00;;;;;17.17;50.80;99224.72;2092158;28;47258;-48
2021/10/21 01:40:11;;;;;;;;;0.00;0.00;;;;;17.18;50.63;99222.91;2092423;28;48315;-48
2021/10/21 01:41:12;;;;;;;;;0.00;0.00;;;;;17.17;51.03;99240.81;2092071;28;45301;-48
2021/10/21 01:42:12;;;;;;;;;0.00;0.00;;;;;17.16;51.01;99236.44;2083358;28;47197;-48
2021/10/21 01:43:14;;;;;;;;;0.00;0.00;;;;;17.14;50.87;99230.28;2083072;28;48544;-50
2021/10/21 01:44:14;;;;;;;;;0.00;0.00;;;;;17.14;51.12;99238.34;2083446;28;45487;-48
2021/10/21 01:45:20;;;;;;;;;0.00;0.00;;;;;17.13;50.75;99262.56;2083218;28;48104;-48
2021/10/21 01:46:21;;;;;;;;;0.00;0.00;;;;;17.12;51.05;99253.66;2080350;28;47379;-48
2021/10/21 01:47:21;;;;;;;;;1.00;0.00;;;;;17.11;51.29;99254.66;2081181;28;47533;-47
2021/10/21 01:48:22;;;;;;;;;0.00;0.00;;;;;17.10;50.98;99236.84;2082921;28;47301;-46
2021/10/21 01:49:24;;;;;;;;;0.00;0.00;;;;;17.09;51.12;99240.50;2083366;28;47382;-48
2021/10/21 01:50:26;;;;;;;;;0.00;0.00;;;;;17.08;50.69;99245.97;2092179;28;47905;-47
2021/10/21 01:51:27;;;;;;;;;0.00;0.00;;;;;17.06;50.81;99265.72;2092044;28;48124;-48
2021/10/21 01:52:27;;;;;;;;;1.00;0.00;;;;;17.04;50.63;99270.31;2092053;28;48354;-48
2021/10/21 01:53:28;;;;;;;;;0.00;0.00;;;;;17.03;50.57;99278.47;2091918;28;47355;-48
2021/10/21 01:54:28;;;;;;;;;0.00;0.00;;;;;17.01;50.91;99259.78;2075016;28;47217;-49
2021/10/21 01:55:29;;;;;;;;;0.00;0.00;;;;;17.00;50.53;99278.66;2075033;28;47628;-49
2021/10/21 01:56:30;;;;;;;;;0.00;0.00;;;;;17.00;51.13;99273.31;2089828;28;48089;-51
2021/10/21 01:57:30;;;;;;;;;0.00;0.00;;;;;16.98;51.10;99294.88;2092170;28;46969;-49
2021/10/21 01:58:30;;;;;;;;;0.00;0.00;;;;;16.96;50.94;99274.50;2092359;28;48338;-49
2021/10/21 01:59:31;;;;;;;;;0.00;0.00;;;;;16.96;50.92;99282.53;2092042;28;47471;-51
2021/10/21 02:00:32;;;;;;;;;0.00;0.00;;;;;16.94;50.94;99289.84;2092315;28;47137;-49
2021/10/21 02:01:32;;;;;;;;;0.00;0.00;;;;;16.92;51.11;99298.00;2092051;28;46774;-50
2021/10/21 02:02:33;;;;;;;;;0.00;0.00;;;;;16.91;50.79;99314.19;2083246;28;48235;-51
2021/10/21 02:03:33;;;;;;;;;0.00;0.00;;;;;16.89;51.09;99282.09;2083021;28;48111;-49
2021/10/21 02:04:34;;;;;;;;;0.00;0.00;;;;;16.89;50.78;99294.66;2092084;28;48063;-48
2021/10/21 02:05:34;;;;;;;;;0.00;0.00;;;;;16.88;50.70;99309.88;2092206;28;45283;-49
2021/10/21 02:06:34;;;;;;;;;0.00;0.00;;;;;16.88;50.69;99309.88;2092104;28;47637;-48
2021/10/21 02:07:35;;;;;;;;;0.00;0.00;;;;;16.87;50.50;99320.69;2082927;28;48123;-49
2021/10/21 02:08:35;;;;;;;;;0.00;0.00;;;;;16.85;50.67;99323.50;2083305;28;46241;-49
2021/10/21 02:09:36;;;;;;;;;0.00;0.00;;;;;16.85;50.57;99319.94;2092111;28;46031;-49
2021/10/21 02:10:36;;;;;;;;;0.00;0.00;;;;;16.84;50.49;99318.25;2083401;28;47491;-48
2021/10/21 02:11:37;;;;;;;;;0.00;0.00;;;;;16.83;50.68;99305.81;2074560;28;47119;-48
2021/10/21 02:12:37;;;;;;;;;0.00;0.00;;;;;16.82;50.51;99339.78;2083158;28;46862;-49
2021/10/21 02:13:38;;;;;;;;;0.00;0.00;;;;;16.81;50.49;99321.13;2089546;28;48474;-49
2021/10/21 02:14:38;;;;;;;;;0.00;0.00;;;;;16.80;50.24;99322.97;2092682;28;47143;-50
2021/10/21 02:15:40;;;;;;;;;0.00;0.00;;;;;16.78;50.53;99314.19;2091815;28;48291;-48
2021/10/21 02:16:40;;;;;;;;;0.00;0.00;;;;;16.75;50.20;99320.59;2092740;28;47260;-49
2021/10/21 02:17:41;;;;;;;;;0.00;0.00;;;;;16.72;50.04;99318.13;2088832;28;46960;-47
2021/10/21 02:18:42;;;;;;;;;0.00;0.00;;;;;16.69;50.05;99346.94;2083200;28;48207;-48
2021/10/21 02:19:42;;;;;;;;;0.00;0.00;;;;;16.67;50.28;99336.34;2082786;28;48170;-48
2021/10/21 02:20:42;;;;;;;;;0.00;0.00;;;;;16.65;50.00;99332.88;2086504;28;47248;-49
2021/10/21 02:21:43;;;;;;;;;0.00;0.00;;;;;16.64;50.42;99365.09;2092409;28;47381;-51
2021/10/21 02:22:45;;;;;;;;;0.00;0.00;;;;;16.62;50.42;99381.28;2090836;28;48057;-47
2021/10/21 02:23:45;;;;;;;;;0.00;0.00;;;;;16.60;50.15;99347.53;2091808;28;47202;-50
2021/10/21 02:24:46;;;;;;;;;0.00;0.00;;;;;16.57;50.22;99363.81;2083189;28;47604;-51
2021/10/21 02:25:47;;;;;;;;;0.00;0.00;;;;;16.54;49.86;99374.75;2082823;28;47267;-49
2021/10/21 02:26:48;;;;;;;;;0.00;0.00;;;;;16.52;50.00;99366.81;2092171;28;48459;-50
2021/10/21 02:27:49;;;;;;;;;0.00;0.00;;;;;16.51;50.22;99374.94;2082806;28;48097;-47
2021/10/21 02:28:49;;;;;;;;;0.00;0.00;;;;;16.49;50.26;99397.31;2083185;28;48037;-48
2021/10/21 02:29:50;;;;;;;;;0.00;0.00;;;;;16.48;50.36;99398.28;2090644;28;47310;-50
2021/10/21 02:30:50;;;;;;;;;0.00;0.00;;;;;16.46;50.38;99405.56;2092011;28;48125;-52
2021/10/21 02:31:51;;;;;;;;;0.00;0.00;;;;;16.46;50.16;99415.41;2091722;28;45375;-50
2021/10/21 02:32:51;;;;;;;;;0.00;0.00;;;;;16.45;50.18;99397.63;2092106;28;47342;-50
2021/10/21 02:33:52;;;;;;;;;0.00;0.00;;;;;16.44;50.57;99422.69;2082877;28;45669;-48
2021/10/21 02:34:52;;;;;;;;;0.67;0.00;;;;;16.42;50.19;99425.47;2080800;28;47276;-49
2021/10/21 02:35:53;;;;;;;;;0.00;0.00;;;;;16.43;50.59;99421.00;2090119;28;47098;-50
2021/10/21 02:36:53;;;;;;;;;0.00;0.00;;;;;16.42;50.51;99459.44;2084820;28;48098;-48
2021/10/21 02:37:54;;;;;;;;;0.00;0.00;;;;;16.41;50.46;99438.97;2085557;28;48116;-50
2021/10/21 02:38:55;;;;;;;;;0.00;0.00;;;;;16.40;50.67;99434.59;2090523;28;48249;-46
2021/10/21 02:39:55;;;;;;;;;0.00;0.00;;;;;16.40;50.65;99447.97;2074740;28;47465;-47
2021/10/21 02:40:55;;;;;;;;;0.00;0.00;;;;;16.39;50.41;99452.47;2080837;28;47228;-48
2021/10/21 02:41:56;;;;;;;;;0.00;0.00;;;;;16.39;50.77;99444.44;2091524;28;45642;-48
2021/10/21 02:42:57;;;;;;;;;0.00;0.00;;;;;16.39;50.28;99479.25;2085396;28;45427;-50
2021/10/21 02:43:57;;;;;;;;;0.00;0.00;;;;;16.39;50.43;99465.00;2083609;28;45969;-47
2021/10/21 02:44:59;;;;;;;;;2.00;0.33;;;;;16.39;50.33;99456.97;2083550;28;48280;-47
2021/10/21 02:46:00;;;;;;;;;0.00;0.00;;;;;16.38;50.75;99472.16;2086417;28;48086;-46
2021/10/21 02:47:01;;;;;;;;;0.00;0.00;;;;;16.38;50.51;99463.25;2091608;28;47425;-47
2021/10/21 02:48:01;;;;;;;;;0.00;0.00;;;;;16.36;50.85;99476.75;2074703;28;48347;-49
2021/10/21 02:49:02;;;;;;;;;0.00;0.00;;;;;16.36;50.91;99506.19;2078055;28;48192;-48
2021/10/21 02:50:04;;;;;;;;;0.00;0.00;;;;;16.36;50.94;99505.34;2091922;28;48140;-51
2021/10/21 02:51:04;;;;;;;;;0.00;0.00;;;;;16.35;50.81;99499.13;2091696;28;47248;-47
2021/10/21 02:52:05;;;;;;;;;0.00;0.00;;;;;16.36;50.58;99498.16;2091607;28;46037;-48
2021/10/21 02:53:05;;;;;;;;;0.00;0.00;;;;;16.37;50.80;99512.41;2085350;28;48220;-47
2021/10/21 02:54:07;;;;;;;;;0.00;0.00;;;;;16.37;50.60;99512.41;2084170;28;47067;-46
2021/10/21 02:55:08;;;;;;;;;0.00;0.00;;;;;16.36;50.53;99497.31;2083266;28;47462;-48
2021/10/21 02:56:08;;;;;;;;;0.00;0.00;;;;;16.36;50.64;99522.25;2083722;28;47413;-47
2021/10/21 02:57:09;;;;;;;;;0.00;0.00;;;;;16.36;50.93;99526.75;2083052;28;48302;-49
2021/10/21 02:58:09;;;;;;;;;0.00;0.00;;;;;16.36;50.71;99529.44;2083759;28;47356;-47
2021/10/21 02:59:10;;;;;;;;;0.00;0.00;;;;;16.37;50.51;99552.56;2083202;28;48039;-47
2021/10/21 03:00:10;;;;;;;;;0.00;0.00;;;;;16.36;50.81;99524.94;2076342;28;48040;-47
2021/10/21 03:01:11;;;;;;;;;0.00;0.00;;;;;16.34;50.43;99553.63;2082722;28;47355;-47
2021/10/21 03:02:11;;;;;;;;;0.00;0.00;;;;;16.35;50.86;99562.53;2086232;28;47335;-52
2021/10/21 03:03:12;;;;;;;;;1.00;0.00;;;;;16.33;50.42;99572.47;2086782;28;48340;-52
2021/10/21 03:04:13;;;;;;;;;0.00;0.00;;;;;16.32;50.88;99558.22;2074862;28;47606;-51
2021/10/21 03:05:14;;;;;;;;;0.00;0.00;;;;;16.31;50.76;99563.69;2081069;28;47351;-52
2021/10/21 03:06:14;;;;;;;;;0.00;0.00;;;;;16.29;51.16;99581.66;2091953;28;48055;-51
2021/10/21 03:07:15;;;;;;;;;0.00;0.00;;;;;16.28;50.69;99586.16;2083534;28;47982;-52
2021/10/21 03:08:15;;;;;;;;;0.00;0.00;;;;;16.26;51.04;99590.75;2083545;28;48273;-51
2021/10/21 03:09:16;;;;;;;;;0.00;0.00;;;;;16.26;51.13;99613.97;2074463;28;46839;-51
2021/10/21 03:10:16;;;;;;;;;0.00;0.00;;;;;16.24;50.66;99616.75;2080589;28;48416;-52
2021/10/21 03:11:17;;;;;;;;;1.00;0.00;;;;;16.23;51.08;99600.78;2087135;28;47618;-52
2021/10/21 03:12:17;;;;;;;;;0.00;0.00;;;;;16.21;50.77;99624.97;2083581;28;47185;-51
2021/10/21 03:13:18;;;;;;;;;0.00;0.00;;;;;16.19;51.22;99608.16;2083037;28;47176;-52
2021/10/21 03:14:18;;;;;;;;;0.00;0.00;;;;;16.19;50.84;99641.13;2083575;28;47710;-52
2021/10/21 03:15:19;;;;;;;;;0.00;0.00;;;;;16.18;51.08;99646.59;2083129;28;47382;-51
2021/10/21 03:16:19;;;;;;;;;0.00;0.00;;;;;16.15;50.89;99698.50;2083359;28;48204;-52
2021/10/21 03:17:20;;;;;;;;;0.00;0.00;;;;;16.16;50.74;99651.19;2074457;28;47131;-53
2021/10/21 03:18:20;;;;;;;;;0.00;0.00;;;;;16.17;50.97;99677.00;2080294;28;47299;-49
2021/10/21 03:19:21;;;;;;;;;0.67;0.67;;;;;16.16;51.01;99702.91;2091483;28;47106;-50
2021/10/21 03:20:21;;;;;;;;;0.00;0.00;;;;;16.15;50.62;99698.50;2091692;28;47668;-52
2021/10/21 03:21:22;;;;;;;;;0.00;0.00;;;;;16.15;50.63;99693.16;2082563;28;47100;-51
2021/10/21 03:22:22;;;;;;;;;0.33;0.00;;;;;16.14;50.73;99683.41;2082471;28;48268;-52
2021/10/21 03:23:25;;;;;;;;;0.00;0.00;;;;;16.14;50.48;99720.00;2091445;28;47126;-50
2021/10/21 03:24:25;;;;;;;;;0.00;0.00;;;;;16.12;50.79;99722.75;2082619;28;47405;-51
2021/10/21 03:25:26;;;;;;;;;0.00;0.00;;;;;16.11;50.83;99730.88;2082705;28;48544;-52
2021/10/21 03:26:27;;;;;;;;;0.00;0.00;;;;;16.11;50.94;99736.22;2082860;28;47094;-52
2021/10/21 03:27:27;;;;;;;;;0.00;0.00;;;;;16.10;50.79;99745.22;2082557;28;47431;-52
2021/10/21 03:28:28;;;;;;;;;0.33;0.00;;;;;16.10;50.58;99731.81;2084427;28;47228;-52
2021/10/21 03:29:28;;;;;;;;;0.33;0.33;;;;;16.09;50.66;99765.75;2091487;28;45487;-47
2021/10/21 03:30:29;;;;;;;;;0.00;0.00;;;;;16.07;50.79;99743.59;2091583;28;47238;-52
2021/10/21 03:31:31;;;;;;;;;0.00;0.00;;;;;16.07;51.05;99782.88;2091278;28;45378;-51
2021/10/21 03:32:31;;;;;;;;;0.00;0.00;;;;;16.07;50.61;99794.44;2091163;28;46719;-49
2021/10/21 03:33:32;;;;;;;;;0.00;0.00;;;;;16.07;50.76;99788.22;2091527;28;46399;-50
2021/10/21 03:34:33;;;;;;;;;0.33;0.00;;;;;16.07;50.72;99812.31;2091547;28;47246;-50
2021/10/21 03:35:33;;;;;;;;;0.00;0.00;;;;;16.06;50.81;99813.25;2093343;28;47131;-51
2021/10/21 03:36:34;;;;;;;;;0.00;0.00;;;;;16.06;50.81;99821.28;2093264;28;47454;-46
2021/10/21 03:37:35;;;;;;;;;1.33;0.00;;;;;16.06;50.58;99838.22;2088896;28;46193;-50
2021/10/21 03:38:36;;;;;;;;;0.50;0.00;;;;;16.05;50.80;99859.72;2082818;28;47915;-49
2021/10/21 03:39:39;;;;;;;;;0.00;0.00;;;;;16.04;50.55;99863.34;2082521;28;48435;-52
2021/10/21 03:40:39;;;;;;;;;0.00;0.00;;;;;16.03;50.65;99866.97;2082686;28;47034;-51
2021/10/21 03:41:40;;;;;;;;;0.00;0.00;;;;;16.01;50.76;99868.88;2082629;28;46024;-49
2021/10/21 03:42:41;;;;;;;;;0.00;0.00;;;;;15.99;50.88;99876.09;2091348;28;48131;-49
2021/10/21 03:43:41;;;;;;;;;0.67;0.00;;;;;15.98;50.90;99875.25;2082362;28;46279;-48
2021/10/21 03:44:42;;;;;;;;;0.33;0.00;;;;;15.99;51.62;99884.13;2082336;28;48161;-47
2021/10/21 03:45:43;;;;;;;;;0.33;0.33;;;;;15.98;51.20;99877.94;2091290;28;47342;-49
2021/10/21 03:46:43;;;;;;;;;0.00;0.00;;;;;16.00;51.70;99884.03;2085930;28;46991;-48
2021/10/21 03:47:43;;;;;;;;;0.00;0.00;;;;;15.98;51.46;99891.31;2088717;28;47555;-48
2021/10/21 03:48:44;;;;;;;;;0.00;0.00;;;;;15.97;51.34;99918.16;2091618;28;48092;-46
2021/10/21 03:49:44;;;;;;;;;0.00;0.00;;;;;15.95;51.36;99928.94;2082465;28;45119;-46
2021/10/21 03:50:45;;;;;;;;;0.00;0.00;;;;;15.93;51.40;99921.97;2074612;28;47329;-47
2021/10/21 03:51:46;;;;;;;;;0.00;0.00;;;;;15.89;51.40;99932.84;2082385;28;46532;-46
2021/10/21 03:52:46;;;;;;;;;0.67;0.67;;;;;15.88;51.48;99951.66;2088323;28;48473;-54
2021/10/21 03:53:47;;;;;;;;;0.33;0.00;;;;;15.86;51.33;99930.31;2090746;28;48259;-46
2021/10/21 03:54:49;;;;;;;;;0.00;0.00;;;;;15.84;51.68;99948.28;2089807;28;48191;-48
2021/10/21 03:55:49;;;;;;;;;0.00;0.00;;;;;15.82;51.77;99957.34;2079809;28;48263;-50
2021/10/21 03:56:50;;;;;;;;;0.00;0.00;;;;;15.80;51.90;99961.91;2075344;28;47205;-49
2021/10/21 03:57:50;;;;;;;;;0.00;0.00;;;;;15.79;51.49;99960.19;2091211;28;47369;-50
2021/10/21 03:58:51;;;;;;;;;0.00;0.00;;;;;15.78;51.75;99972.72;2087758;28;46533;-47
2021/10/21 03:59:52;;;;;;;;;0.25;0.00;;;;;15.76;51.38;99969.25;2091220;28;47442;-50
2021/10/21 04:00:53;;;;;;;;;0.00;0.00;;;;;15.75;51.55;99969.31;2091549;28;46754;-51
2021/10/21 04:01:54;;;;;;;;;0.00;0.00;;;;;15.75;51.33;99980.00;2091319;28;47023;-51
2021/10/21 04:02:54;;;;;;;;;0.25;0.00;;;;;15.74;51.28;100005.03;2091576;28;47582;-50
2021/10/21 04:03:55;;;;;;;;;0.00;0.00;;;;;15.73;51.59;100017.56;2091164;28;47196;-46
2021/10/21 04:04:55;;;;;;;;;0.00;0.00;;;;;15.71;51.17;100011.44;2091649;28;47944;-49
2021/10/21 04:05:56;;;;;;;;;0.00;0.00;;;;;15.71;51.31;100023.94;2091154;28;47172;-48
2021/10/21 04:06:56;;;;;;;;;0.00;0.00;;;;;15.70;51.21;100014.19;2082605;28;48226;-47
2021/10/21 04:07:57;;;;;;;;;0.00;0.00;;;;;15.66;51.02;100016.19;2073770;28;47177;-49
2021/10/21 04:08:58;;;;;;;;;0.00;0.00;;;;;15.63;51.24;100032.41;2081999;28;48067;-47
2021/10/21 04:09:58;;;;;;;;;0.00;0.00;;;;;15.61;51.48;100069.03;2082312;28;48526;-46
2021/10/21 04:10:59;;;;;;;;;0.00;0.00;;;;;15.60;51.25;100037.88;2081731;28;47285;-49
2021/10/21 04:11:59;;;;;;;;;0.00;0.00;;;;;15.57;50.91;100025.50;2092514;28;48167;-49
2021/10/21 04:13:00;;;;;;;;;0.67;0.00;;;;;15.55;50.93;100045.25;2083942;28;48415;-50
2021/10/21 04:14:01;;;;;;;;;0.67;0.67;;;;;15.53;50.97;100060.53;2073818;28;46307;-51
2021/10/21 04:15:01;;;;;;;;;0.00;0.00;;;;;15.49;51.09;100057.13;2083284;28;47368;-49
2021/10/21 04:16:02;;;;;;;;;0.00;0.00;;;;;15.49;51.02;100050.91;2085657;28;47949;-46
2021/10/21 04:17:03;;;;;;;;;1.00;1.00;;;;;15.48;51.57;100060.75;2100573;28;47139;-49
2021/10/21 04:18:03;;;;;;;;;0.00;0.00;;;;;15.45;51.06;100071.63;2085840;28;47201;-49
2021/10/21 04:19:04;;;;;;;;;0.00;0.00;;;;;15.45;50.89;100073.44;2084585;28;48450;-46
2021/10/21 04:20:06;;;;;;;;;0.00;0.00;;;;;15.44;51.24;100071.69;2075723;28;46888;-48
2021/10/21 04:21:06;;;;;;;;;0.00;0.00;;;;;15.45;51.43;100073.44;2075535;28;47410;-46
2021/10/21 04:22:06;;;;;;;;;1.00;0.67;;;;;15.44;51.69;100080.59;2085224;28;47056;-49
2021/10/21 04:23:07;;;;;;;;;0.33;0.33;;;;;15.44;51.56;100091.28;2077050;28;47249;-47
2021/10/21 04:24:07;;;;;;;;;0.00;0.00;;;;;15.44;51.23;100079.72;2079793;28;47135;-46
2021/10/21 04:25:08;;;;;;;;;0.33;0.33;;;;;15.43;51.87;100080.66;2075385;28;47683;-46
2021/10/21 04:26:09;;;;;;;;;0.00;0.00;;;;;15.43;51.67;100080.66;2075938;28;46415;-45
2021/10/21 04:27:09;;;;;;;;;1.00;1.00;;;;;15.43;51.41;100094.03;2084215;28;48346;-46
2021/10/21 04:28:10;;;;;;;;;0.00;0.00;;;;;15.42;51.60;100085.16;2084587;28;47540;-47
2021/10/21 04:29:10;;;;;;;;;0.00;0.00;;;;;15.42;52.03;100101.19;2084048;28;48036;-47
2021/10/21 04:30:14;;;;;;;;;0.00;0.00;;;;;15.42;51.64;100101.19;2084561;28;47976;-48
2021/10/21 04:31:15;;;;;;;;;0.00;0.00;;;;;15.42;51.28;100092.31;2075569;28;48186;-47
2021/10/21 04:32:16;;;;;;;;;0.50;0.00;;;;;15.43;51.23;100107.41;2075614;28;48137;-47
2021/10/21 04:33:16;;;;;;;;;0.00;0.00;;;;;15.41;51.40;100090.59;2084327;28;46004;-48
2021/10/21 04:34:16;;;;;;;;;0.67;0.33;;;;;15.40;51.64;100102.22;2086808;28;48160;-47
2021/10/21 04:35:17;;;;;;;;;1.67;0.67;;;;;15.40;51.49;100105.75;2094026;28;47152;-50
2021/10/21 04:36:18;;;;;;;;;1.00;0.33;;;;;15.38;51.73;100107.66;2100966;28;46314;-51
2021/10/21 04:37:18;;;;;;;;;0.00;0.00;;;;;15.37;51.19;100115.72;2086875;28;48054;-46
2021/10/21 04:38:19;;;;;;;;;0.00;0.00;;;;;15.37;51.25;100118.41;2084352;28;47456;-47
2021/10/21 04:39:19;;;;;;;;;2.00;0.67;;;;;15.34;51.25;100124.78;2084246;28;47308;-48
2021/10/21 04:40:20;;;;;;;;;0.00;0.00;;;;;15.32;51.61;100122.19;2084507;28;47451;-46
2021/10/21 04:41:20;;;;;;;;;0.00;0.00;;;;;15.32;51.49;100134.69;2084154;28;48136;-48
2021/10/21 04:42:21;;;;;;;;;0.00;0.00;;;;;15.30;51.49;100133.91;2084409;28;47073;-46
2021/10/21 04:43:22;;;;;;;;;1.00;1.00;;;;;15.28;51.88;100131.31;2078723;28;47163;-48
2021/10/21 04:44:22;;;;;;;;;0.67;0.00;;;;;15.28;51.79;100128.63;2075641;28;48318;-46
2021/10/21 04:45:23;;;;;;;;;0.67;0.67;;;;;15.28;51.43;100141.13;2083356;28;48255;-48